Time;durP1;ratioP1;P1;durP2;ratioP2;P2;SDS_P1;SDS_P2;PMS_P1;PMS_P2;Temp;Humidity;BMP_temperature;BMP_pressure;BME280_temperature;BME280_humidity;BME280_pressure;Samples;Min_cycle;Max_cycle;Signal;HPM_P1;HPM_P2
2022/09/04 00:01:16;;;;;;;7.88;4.72;;;;;;;17.66;72.33;99397.34;5072986;28;20049;-68
2022/09/04 00:03:50;;;;;;;5.75;3.22;;;;;;;17.67;72.22;99396.38;5074947;28;20064;-70
2022/09/04 00:06:26;;;;;;;5.15;3.60;;;;;;;17.59;72.72;99403.19;5078102;28;20063;-68
2022/09/04 00:09:04;;;;;;;7.18;2.80;;;;;;;17.58;72.94;99404.19;5076281;28;20059;-70
2022/09/04 00:11:43;;;;;;;7.07;3.90;;;;;;;17.52;72.92;99404.72;5091018;28;20054;-69
2022/09/04 00:14:14;;;;;;;6.72;4.45;;;;;;;17.47;73.16;99406.88;5089688;28;20064;-68
2022/09/04 00:16:46;;;;;;;7.15;4.03;;;;;;;17.37;73.38;99412.16;5079122;28;20056;-69
2022/09/04 00:19:21;;;;;;;4.90;3.72;;;;;;;17.32;73.68;99406.34;5082886;28;20067;-69
2022/09/04 00:21:53;;;;;;;5.88;3.63;;;;;;;17.24;74.39;99413.31;5097343;28;20048;-69
2022/09/04 00:24:23;;;;;;;4.82;3.50;;;;;;;17.23;73.94;99414.25;5095191;28;20055;-69
2022/09/04 00:26:57;;;;;;;5.82;3.30;;;;;;;17.21;74.05;99418.91;5094005;28;20143;-68
2022/09/04 00:29:35;;;;;;;4.93;3.58;;;;;;;17.21;74.19;99416.25;5093616;28;20127;-67
2022/09/04 00:32:10;;;;;;;5.97;4.47;;;;;;;17.21;74.14;99421.56;5087320;28;20076;-68
2022/09/04 00:34:55;;;;;;;5.65;3.50;;;;;;;17.19;73.88;99413.69;5072365;28;20135;-68
2022/09/04 00:37:29;;;;;;;5.20;2.73;;;;;;;17.19;74.50;99423.50;5071517;28;20053;-69
2022/09/04 00:40:00;;;;;;;4.85;4.25;;;;;;;17.22;74.42;99417.91;5071020;28;20131;-68
2022/09/04 00:43:00;;;;;;;3.65;2.88;;;;;;;17.19;74.09;99424.34;5071085;28;20075;-69
2022/09/04 00:45:40;;;;;;;4.28;2.97;;;;;;;17.16;74.40;99425.44;5072087;28;20048;-69
2022/09/04 00:48:42;;;;;;;6.18;3.33;;;;;;;17.14;74.26;99426.53;5074504;28;20047;-68
2022/09/04 00:51:16;;;;;;;7.47;3.78;;;;;;;17.13;74.25;99422.16;5068785;28;20511;-69
2022/09/04 00:54:16;;;;;;;4.95;3.67;;;;;;;17.12;74.43;99431.97;5072798;28;20059;-69
2022/09/04 00:57:08;;;;;;;5.30;2.90;;;;;;;17.12;74.44;99425.81;5073605;28;20050;-70
2022/09/04 00:59:56;;;;;;;4.60;3.08;;;;;;;17.11;74.37;99429.47;5070518;28;20094;-68
2022/09/04 01:02:31;;;;;;;6.10;3.25;;;;;;;17.07;74.62;99433.34;5070854;28;20051;-69
2022/09/04 01:05:03;;;;;;;5.22;3.00;;;;;;;17.06;74.36;99434.31;5070580;28;20143;-66
2022/09/04 01:07:44;;;;;;;5.15;3.30;;;;;;;17.06;74.72;99439.66;5085685;28;20079;-70
2022/09/04 01:10:30;;;;;;;5.55;3.28;;;;;;;17.06;74.87;99450.31;5089915;28;20048;-70
2022/09/04 01:13:03;;;;;;;5.15;3.05;;;;;;;17.04;74.53;99445.09;5087226;28;20040;-69
2022/09/04 01:15:37;;;;;;;4.53;2.65;;;;;;;17.01;74.69;99447.19;5069928;28;20579;-66
2022/09/04 01:18:11;;;;;;;3.17;2.00;;;;;;;16.99;74.68;99455.28;5069219;28;20045;-67
2022/09/04 01:20:53;;;;;;;3.30;2.70;;;;;;;16.94;75.22;99452.16;5087050;28;20040;-67
2022/09/04 01:23:45;;;;;;;3.78;2.60;;;;;;;16.92;75.24;99460.25;5090050;28;20101;-68
2022/09/04 01:26:22;;;;;;;4.75;2.20;;;;;;;16.92;75.21;99462.91;5086381;28;20052;-68
2022/09/04 01:29:05;;;;;;;2.80;2.00;;;;;;;16.92;75.47;99460.25;5090256;28;20068;-66
2022/09/04 01:31:37;;;;;;;3.83;2.03;;;;;;;16.90;75.37;99462.19;5088357;28;20067;-67
2022/09/04 01:34:18;;;;;;;3.42;2.20;;;;;;;16.92;75.03;99467.41;5070084;28;20052;-68
2022/09/04 01:36:53;;;;;;;3.30;2.22;;;;;;;16.91;75.16;99465.72;5070402;28;20045;-67
2022/09/04 01:39:23;;;;;;;4.57;2.33;;;;;;;16.91;75.18;99465.72;5070785;28;20053;-67
2022/09/04 01:41:58;;;;;;;3.60;2.42;;;;;;;16.88;75.70;99466.81;5070675;28;20044;-67
2022/09/04 01:44:26;;;;;;;3.53;2.33;;;;;;;16.85;75.55;99469.69;5071146;28;20102;-67
2022/09/04 01:47:03;;;;;;;5.65;2.55;;;;;;;16.78;75.70;99471.16;5069719;28;20516;-68
2022/09/04 01:49:36;;;;;;;3.08;2.20;;;;;;;16.72;75.90;99474.28;5071040;28;20044;-68
2022/09/04 01:52:18;;;;;;;2.97;2.10;;;;;;;16.70;75.55;99473.56;5070755;28;20045;-70
2022/09/04 01:54:55;;;;;;;2.88;2.22;;;;;;;16.68;76.57;99479.00;5070527;28;20728;-70
2022/09/04 01:57:45;;;;;;;4.63;2.95;;;;;;;16.69;76.44;99485.19;5069650;28;20143;-69
2022/09/04 02:00:15;;;;;;;3.55;2.50;;;;;;;16.64;76.62;99476.72;5069191;28;20056;-69
2022/09/04 02:02:54;;;;;;;5.40;2.40;;;;;;;16.61;76.37;99480.44;5080768;28;20048;-68
2022/09/04 02:05:29;;;;;;;2.95;2.30;;;;;;;16.60;76.55;99480.59;5081932;28;20054;-71
2022/09/04 02:08:06;;;;;;;3.20;2.10;;;;;;;16.58;76.30;99480.69;5088904;28;20044;-69
2022/09/04 02:10:38;;;;;;;4.47;2.85;;;;;;;16.58;76.63;99487.84;5075008;28;20060;-68
2022/09/04 02:13:16;;;;;;;5.70;3.10;;;;;;;16.56;76.57;99487.09;5069564;28;20052;-68
2022/09/04 02:15:50;;;;;;;3.17;2.35;;;;;;;16.52;76.58;99494.50;5069101;28;20112;-68
2022/09/04 02:18:30;;;;;;;3.15;2.35;;;;;;;16.53;76.85;99490.88;5069355;28;20050;-69
2022/09/04 02:21:02;;;;;;;4.78;2.28;;;;;;;16.53;76.90;99494.34;5093186;28;20070;-68
2022/09/04 02:23:36;;;;;;;4.70;3.40;;;;;;;16.51;76.98;99501.66;5093300;28;20048;-68
2022/09/04 02:26:09;;;;;;;3.28;2.22;;;;;;;16.50;76.84;99497.28;5092705;28;20589;-68
2022/09/04 02:28:49;;;;;;;3.40;2.45;;;;;;;16.52;77.12;99499.81;5093517;28;20083;-68
2022/09/04 02:31:23;;;;;;;6.53;2.38;;;;;;;16.50;77.54;99499.09;5093410;28;20052;-70
2022/09/04 02:33:59;;;;;;;3.53;2.50;;;;;;;16.50;77.44;99507.91;5073102;28;20139;-70
2022/09/04 02:36:32;;;;;;;3.85;2.25;;;;;;;16.43;77.65;99508.53;5072155;28;20053;-68
2022/09/04 02:39:07;;;;;;;6.50;2.42;;;;;;;16.40;78.23;99506.94;5072749;28;20053;-69
2022/09/04 02:41:41;;;;;;;3.83;2.67;;;;;;;16.42;77.96;99506.84;5073016;28;20044;-69
2022/09/04 02:44:24;;;;;;;3.92;3.03;;;;;;;16.43;78.06;99506.69;5072802;28;20048;-69
2022/09/04 02:47:01;;;;;;;4.63;2.42;;;;;;;16.45;78.11;99506.59;5071792;28;20127;-68
2022/09/04 02:49:37;;;;;;;3.38;2.53;;;;;;;16.45;77.62;99510.09;5072571;28;20415;-69
2022/09/04 02:52:18;;;;;;;3.80;2.67;;;;;;;16.48;77.45;99515.16;5075098;28;20139;-68
2022/09/04 02:55:00;;;;;;;3.47;2.30;;;;;;;16.51;77.89;99509.63;5072855;28;20052;-68
2022/09/04 02:57:39;;;;;;;5.18;2.50;;;;;;;16.52;77.79;99511.31;5071820;28;20044;-69
2022/09/04 03:00:14;;;;;;;3.38;2.63;;;;;;;16.55;78.05;99512.88;5091186;28;20044;-68
2022/09/04 03:02:45;;;;;;;5.15;2.95;;;;;;;16.57;77.84;99510.13;5092880;28;20040;-69
2022/09/04 03:05:18;;;;;;;4.78;2.90;;;;;;;16.57;77.93;99515.44;5091643;28;20586;-67
2022/09/04 03:07:52;;;;;;;3.28;2.33;;;;;;;16.58;78.06;99512.63;5077522;28;20055;-68
2022/09/04 03:10:24;;;;;;;3.10;2.38;;;;;;;16.59;78.04;99514.34;5092508;28;20054;-68
2022/09/04 03:12:56;;;;;;;4.25;2.50;;;;;;;16.59;78.25;99516.13;5090645;28;20044;-69
2022/09/04 03:15:29;;;;;;;3.20;2.47;;;;;;;16.56;78.34;99517.22;5073546;28;20044;-69
2022/09/04 03:18:02;;;;;;;6.00;2.30;;;;;;;16.57;78.49;99521.59;5071535;28;20048;-67
2022/09/04 03:20:33;;;;;;;4.10;2.20;;;;;;;16.56;78.52;99524.38;5088038;28;20047;-67
2022/09/04 03:23:06;;;;;;;5.63;2.30;;;;;;;16.53;78.30;99526.28;5092293;28;20059;-69
2022/09/04 03:25:56;;;;;;;5.45;3.28;;;;;;;16.53;78.46;99523.63;5092045;28;20056;-70
2022/09/04 03:28:35;;;;;;;5.88;2.38;;;;;;;16.55;79.09;99525.34;5091748;28;20048;-69
2022/09/04 03:31:13;;;;;;;5.72;2.63;;;;;;;16.52;78.67;99521.13;5091387;28;20515;-70
2022/09/04 03:33:47;;;;;;;4.22;2.38;;;;;;;16.48;79.17;99519.66;5072434;28;20059;-69
2022/09/04 03:36:24;;;;;;;6.60;2.40;;;;;;;16.48;79.51;99517.81;5071217;28;20048;-69
2022/09/04 03:39:03;;;;;;;5.95;2.70;;;;;;;16.48;79.44;99525.81;5071673;28;20144;-69
2022/09/04 03:41:39;;;;;;;4.38;2.53;;;;;;;16.49;79.12;99526.66;5071849;28;20076;-69
2022/09/04 03:44:17;;;;;;;3.42;2.40;;;;;;;16.50;79.20;99529.22;5071792;28;20062;-70
2022/09/04 03:46:56;;;;;;;3.00;2.40;;;;;;;16.50;79.33;99528.38;5071242;28;20048;-69
2022/09/04 03:49:37;;;;;;;3.58;2.28;;;;;;;16.53;79.06;99531.63;5071431;28;20044;-68
2022/09/04 03:52:14;;;;;;;5.75;2.47;;;;;;;16.56;79.46;99532.34;5071420;28;20057;-69
2022/09/04 03:54:53;;;;;;;4.35;2.90;;;;;;;16.58;78.98;99538.41;5078290;28;20557;-68
2022/09/04 03:57:35;;;;;;;4.93;2.38;;;;;;;16.62;79.86;99531.88;5083273;28;20133;-68
2022/09/04 04:00:08;;;;;;;3.17;2.40;;;;;;;16.66;79.20;99542.19;5091541;28;20574;-68
2022/09/04 04:02:49;;;;;;;3.53;2.47;;;;;;;16.67;79.65;99543.84;5081158;28;20044;-67
2022/09/04 04:05:27;;;;;;;8.23;2.63;;;;;;;16.70;80.10;99548.09;5071215;28;20052;-67
2022/09/04 04:08:08;;;;;;;5.10;2.97;;;;;;;16.70;79.61;99548.09;5070860;28;20070;-68
2022/09/04 04:10:48;;;;;;;3.17;2.42;;;;;;;16.69;79.87;99555.25;5071208;28;20135;-69
2022/09/04 04:13:36;;;;;;;4.18;2.38;;;;;;;16.72;79.81;99554.16;5071174;28;20054;-69
2022/09/04 04:16:22;;;;;;;2.67;2.05;;;;;;;16.72;79.80;99554.16;5066078;28;20044;-69
2022/09/04 04:19:10;;;;;;;6.22;4.20;;;;;;;16.73;80.19;99554.00;5073137;28;20054;-69
2022/09/04 04:21:54;;;;;;;2.70;2.17;;;;;;;16.77;79.53;99561.78;5091330;28;20048;-69
2022/09/04 04:24:46;;;;;;;4.13;2.35;;;;;;;16.80;80.17;99561.56;5090760;28;20052;-69
2022/09/04 04:27:27;;;;;;;4.43;2.67;;;;;;;16.85;80.23;99559.38;5090410;28;20048;-67
2022/09/04 04:30:03;;;;;;;3.60;2.55;;;;;;;16.88;79.47;99559.13;5091298;28;20050;-67
2022/09/04 04:33:00;;;;;;;2.92;2.15;;;;;;;16.94;79.94;99562.16;5081005;28;20048;-67
2022/09/04 04:35:29;;;;;;;;;;;;;;;17.07;80.66;99566.53;5070999;28;20049;-69
2022/09/04 04:38:11;;;;;;;5.78;3.13;;;;;;;17.22;80.46;99570.59;5070018;28;20276;-69
2022/09/04 04:40:56;;;;;;;3.42;2.90;;;;;;;17.36;80.16;99570.34;5070340;28;20474;-68
2022/09/04 04:43:30;;;;;;;4.32;2.88;;;;;;;17.46;79.33;99567.78;5069443;28;20477;-69
2022/09/04 04:46:02;;;;;;;4.20;2.33;;;;;;;17.53;79.04;99568.97;5069831;28;20048;-69
2022/09/04 04:48:56;;;;;;;4.95;2.40;;;;;;;17.60;78.28;99577.34;5070519;28;20057;-69
2022/09/04 04:51:39;;;;;;;3.53;2.53;;;;;;;17.68;78.71;99574.88;5080804;28;20127;-69
2022/09/04 04:54:21;;;;;;;2.97;1.95;;;;;;;17.76;78.41;99587.56;5090416;28;20062;-69
2022/09/04 04:56:53;;;;;;;5.13;2.60;;;;;;;17.80;78.06;99589.91;5086212;28;20048;-69
2022/09/04 04:59:27;;;;;;;3.47;2.03;;;;;;;17.87;78.14;99584.03;5069885;28;20091;-68
2022/09/04 05:02:06;;;;;;;3.05;2.10;;;;;;;17.92;77.87;99596.03;5070184;28;20049;-68
2022/09/04 05:04:43;;;;;;;3.40;2.38;;;;;;;17.99;77.56;99596.34;5070402;28;20051;-69
2022/09/04 05:07:21;;;;;;;5.32;2.60;;;;;;;18.04;77.29;99596.84;5069389;28;20052;-67
2022/09/04 05:09:55;;;;;;;6.15;2.47;;;;;;;18.08;77.12;99598.28;5070145;28;20050;-68
2022/09/04 05:12:31;;;;;;;3.00;2.50;;;;;;;18.13;76.98;99595.22;5085431;28;20078;-68
2022/09/04 05:15:06;;;;;;;3.38;2.38;;;;;;;18.14;76.90;99605.78;5090191;28;20074;-68
2022/09/04 05:17:40;;;;;;;4.25;2.70;;;;;;;18.19;76.78;99608.06;5089557;28;20059;-68
2022/09/04 05:20:32;;;;;;;7.00;2.40;;;;;;;18.20;76.41;99602.56;5089996;28;20051;-67
2022/09/04 05:23:13;;;;;;;4.35;2.17;;;;;;;18.23;76.33;99615.66;5086705;28;20048;-68
2022/09/04 05:25:49;;;;;;;4.22;2.85;;;;;;;18.27;76.07;99618.09;5071609;28;20058;-69
2022/09/04 05:28:26;;;;;;;3.53;2.10;;;;;;;18.28;75.83;99623.28;5069640;28;20056;-68
2022/09/04 05:31:08;;;;;;;4.15;2.28;;;;;;;18.33;75.73;99630.91;5069645;28;20045;-68
2022/09/04 05:33:40;;;;;;;4.07;2.10;;;;;;;18.34;75.56;99630.78;5069469;28;20049;-68
2022/09/04 05:36:13;;;;;;;3.80;2.17;;;;;;;18.38;75.26;99629.53;5068990;28;20075;-68
2022/09/04 05:38:55;;;;;;;4.65;2.40;;;;;;;18.41;75.29;99631.97;5069793;28;20048;-68
2022/09/04 05:41:35;;;;;;;3.28;2.15;;;;;;;18.42;75.21;99633.66;5069376;28;20052;-68
2022/09/04 05:44:16;;;;;;;4.60;2.30;;;;;;;18.43;75.13;99638.03;5069577;28;20059;-68
2022/09/04 05:46:58;;;;;;;3.28;2.17;;;;;;;18.50;74.80;99645.50;5071984;28;20042;-68
2022/09/04 05:49:41;;;;;;;2.50;1.90;;;;;;;18.52;74.71;99644.41;5082367;28;20093;-68
2022/09/04 05:52:39;;;;;;;4.07;2.30;;;;;;;18.57;74.54;99650.19;5089435;28;20048;-68
2022/09/04 05:55:40;;;;;;;5.80;2.60;;;;;;;18.59;74.44;99645.56;5078599;28;20570;-67
2022/09/04 05:58:26;;;;;;;2.95;2.03;;;;;;;18.62;74.15;99661.31;5068877;28;20424;-68
2022/09/04 06:01:08;;;;;;;6.10;2.28;;;;;;;18.65;74.10;99660.22;5069169;28;20083;-67
2022/09/04 06:03:54;;;;;;;3.30;2.40;;;;;;;18.69;74.01;99663.50;5069380;28;20044;-67
2022/09/04 06:06:28;;;;;;;4.35;2.28;;;;;;;18.71;73.87;99665.06;5068525;28;20044;-68
2022/09/04 06:09:22;;;;;;;2.10;1.83;;;;;;;18.81;73.46;99670.50;5069443;28;20047;-69
2022/09/04 06:12:16;;;;;;;3.53;2.38;;;;;;;18.83;73.26;99669.38;5069448;28;20424;-68
2022/09/04 06:15:17;;;;;;;6.50;2.28;;;;;;;18.88;72.77;99663.66;5069272;28;20059;-67
2022/09/04 06:17:57;;;;;;;5.93;2.92;;;;;;;18.95;72.69;99674.63;5052982;28;20062;-67
2022/09/04 06:20:43;;;;;;;2.97;2.20;;;;;;;19.03;72.25;99675.69;5084344;28;20317;-67
2022/09/04 06:23:21;;;;;;;3.78;2.65;;;;;;;19.11;72.01;99684.84;5089396;28;20464;-67
2022/09/04 06:26:14;;;;;;;4.25;2.20;;;;;;;19.17;71.65;99681.63;5088502;28;20056;-68
2022/09/04 06:28:56;;;;;;;5.82;2.50;;;;;;;19.21;71.34;99689.25;5089317;28;20044;-68
2022/09/04 06:31:56;;;;;;;3.22;1.85;;;;;;;19.31;71.20;99683.97;5088586;28;20510;-68
2022/09/04 06:34:36;;;;;;;3.47;2.45;;;;;;;19.38;70.80;99690.47;5035813;28;20084;-69
2022/09/04 06:37:15;;;;;;;2.83;1.80;;;;;;;19.47;70.41;99697.69;5068586;28;20066;-69
2022/09/04 06:40:10;;;;;;;3.35;1.58;;;;;;;19.57;70.03;99696.88;5069204;28;20427;-67
2022/09/04 06:42:54;;;;;;;2.25;1.80;;;;;;;19.64;69.67;99698.00;5069228;28;20136;-68
2022/09/04 06:45:41;;;;;;;2.47;1.88;;;;;;;19.72;69.38;99700.91;5081452;28;20500;-68
2022/09/04 06:48:18;;;;;;;3.03;2.13;;;;;;;19.84;68.88;99705.16;5088398;28;20052;-66
2022/09/04 06:50:55;;;;;;;2.85;1.95;;;;;;;19.91;68.50;99703.63;5083390;28;20051;-67
2022/09/04 06:53:37;;;;;;;5.50;2.08;;;;;;;20.02;68.21;99699.16;5071569;28;20067;-68
2022/09/04 06:56:17;;;;;;;2.58;2.08;;;;;;;20.13;67.90;99704.34;5068197;28;20139;-68
2022/09/04 06:59:26;;;;;;;3.05;2.25;;;;;;;20.24;67.34;99701.56;5068694;28;20087;-68
2022/09/04 07:02:07;;;;;;;4.88;2.08;;;;;;;20.35;67.01;99705.94;5068849;28;20087;-69
2022/09/04 07:04:48;;;;;;;4.47;2.17;;;;;;;20.46;66.86;99703.13;5069045;28;20056;-68
2022/09/04 07:07:21;;;;;;;5.25;2.20;;;;;;;20.53;66.32;99706.09;5071686;28;20048;-68
2022/09/04 07:09:53;;;;;;;3.20;1.80;;;;;;;20.66;65.92;99713.88;5077682;28;20047;-69
2022/09/04 07:12:54;;;;;;;4.25;2.20;;;;;;;20.77;65.61;99714.56;5084549;28;20047;-68
2022/09/04 07:16:05;;;;;;;2.33;1.92;;;;;;;20.85;65.36;99719.22;5081211;28;20079;-68
2022/09/04 07:18:57;;;;;;;3.28;2.10;;;;;;;20.98;65.16;99722.41;5062281;28;20056;-68
2022/09/04 07:21:34;;;;;;;4.40;1.92;;;;;;;21.08;65.13;99725.09;5072211;28;20048;-69
2022/09/04 07:24:07;;;;;;;2.15;1.80;;;;;;;21.17;64.54;99724.22;5071481;28;20056;-69
2022/09/04 07:26:39;;;;;;;2.85;2.20;;;;;;;21.25;64.48;99720.81;5071402;28;20127;-67
2022/09/04 07:29:19;;;;;;;2.95;2.05;;;;;;;21.34;63.90;99730.66;5071738;28;20080;-68
2022/09/04 07:31:54;;;;;;;2.53;2.05;;;;;;;21.41;63.47;99725.56;5075336;28;20044;-70
2022/09/04 07:34:27;;;;;;;3.20;1.87;;;;;;;21.48;63.30;99725.84;5091967;28;20048;-68
2022/09/04 07:37:01;;;;;;;3.80;2.28;;;;;;;21.54;62.78;99731.47;5091182;28;20056;-68
2022/09/04 07:39:38;;;;;;;3.25;2.10;;;;;;;21.61;62.88;99727.22;5091835;28;20070;-68
2022/09/04 07:42:14;;;;;;;4.88;2.28;;;;;;;21.70;62.88;99736.19;5091894;28;20056;-69
2022/09/04 07:44:47;;;;;;;4.05;2.42;;;;;;;21.83;62.00;99735.84;5091828;28;20083;-68
2022/09/04 07:47:19;;;;;;;3.58;2.55;;;;;;;21.95;61.30;99739.19;5083769;28;20091;-67
2022/09/04 07:49:59;;;;;;;3.85;2.38;;;;;;;22.05;60.35;99745.34;5071825;28;20156;-69
2022/09/04 07:52:41;;;;;;;3.03;2.20;;;;;;;22.14;60.28;99743.59;5071481;28;20063;-68
2022/09/04 07:55:35;;;;;;;4.03;2.10;;;;;;;22.15;59.84;99756.03;5071375;28;20470;-69
2022/09/04 07:58:48;;;;;;;5.68;2.65;;;;;;;22.16;60.12;99753.19;5070770;28;20587;-67
2022/09/04 08:01:32;;;;;;;6.47;2.78;;;;;;;22.25;60.05;99752.31;5070839;28;20045;-67
2022/09/04 08:04:25;;;;;;;5.93;3.10;;;;;;;22.42;59.52;99757.84;5071407;28;20136;-67
2022/09/04 08:06:58;;;;;;;3.10;2.55;;;;;;;22.53;59.25;99760.31;5070667;28;20060;-67
2022/09/04 08:09:50;;;;;;;3.30;2.22;;;;;;;22.68;58.73;99761.47;5070956;28;20087;-68
2022/09/04 08:12:45;;;;;;;4.18;2.60;;;;;;;22.78;58.51;99758.69;5071106;28;20045;-66
2022/09/04 08:15:18;;;;;;;3.08;2.03;;;;;;;22.85;58.17;99761.63;5071167;28;20427;-67
2022/09/04 08:17:57;;;;;;;3.97;2.90;;;;;;;22.91;57.76;99759.16;5070320;28;20056;-67
2022/09/04 08:20:38;;;;;;;4.43;2.72;;;;;;;22.96;57.43;99765.91;5086131;28;20079;-68
2022/09/04 08:23:23;;;;;;;4.95;2.70;;;;;;;23.04;57.24;99763.31;5090877;28;20044;-69
2022/09/04 08:25:59;;;;;;;3.10;2.38;;;;;;;23.14;56.94;99770.28;5090393;28;20117;-68
2022/09/04 08:28:43;;;;;;;3.38;2.50;;;;;;;23.22;56.30;99772.19;5090573;28;20426;-69
2022/09/04 08:31:22;;;;;;;5.28;2.42;;;;;;;23.42;56.63;99772.81;5090809;28;20470;-51
2022/09/04 08:34:32;;;;;;;5.60;2.30;;;;;;;23.62;55.40;99777.97;5070693;28;20405;-55
2022/09/04 08:37:06;;;;;;;5.93;2.40;;;;;;;23.76;54.17;99780.13;5078429;28;20058;-51
2022/09/04 08:39:40;;;;;;;3.83;2.58;;;;;;;23.93;54.17;99771.09;5090990;28;20483;-53
2022/09/04 08:42:44;;;;;;;4.13;2.60;;;;;;;24.10;53.45;99780.09;5090817;28;20050;-54
2022/09/04 08:45:53;;;;;;;4.05;2.28;;;;;;;24.28;53.47;99781.84;5070482;28;20055;-49
2022/09/04 08:49:06;;;;;;;2.97;2.55;;;;;;;24.40;52.90;99780.50;5070592;28;20469;-53
2022/09/04 08:52:10;;;;;;;6.70;2.85;;;;;;;24.50;51.77;99781.25;5060098;28;20143;-52
2022/09/04 08:55:01;;;;;;;8.45;3.05;;;;;;;24.56;51.14;99788.69;5070442;28;20048;-55
2022/09/04 08:57:54;;;;;;;4.75;2.85;;;;;;;24.74;50.99;99795.78;5069286;28;20500;-54
2022/09/04 09:00:22;;;;;;;4.80;2.42;;;;;;;24.79;48.69;99785.34;5070010;28;20458;-49
2022/09/04 09:03:34;;;;;;;4.53;2.92;;;;;;;24.84;48.24;99785.66;5070276;28;20215;-56
2022/09/04 09:06:36;;;;;;;4.78;3.05;;;;;;;24.93;48.37;99784.63;5022957;28;20051;-51
2022/09/04 09:09:36;;;;;;;5.18;2.80;;;;;;;25.00;47.73;99787.50;5070113;28;20600;-57
2022/09/04 09:12:56;;;;;;;3.13;2.50;;;;;;;25.33;46.48;99791.09;5089569;28;20439;-54
2022/09/04 09:15:50;;;;;;;5.47;2.60;;;;;;;25.69;45.26;99796.88;5090519;28;20139;-52
2022/09/04 09:18:35;;;;;;;3.35;2.45;;;;;;;26.19;44.54;99794.91;5090196;28;20048;-50
2022/09/04 09:21:06;;;;;;;;;;;;;;;26.80;42.95;99794.19;5070424;28;20135;-49
2022/09/04 09:23:40;;;;;;;4.35;2.47;;;;;;;27.39;42.08;99794.41;5069151;28;19920;-55
2022/09/04 09:26:28;;;;;;;2.80;2.30;;;;;;;28.55;39.94;99789.31;5071726;28;20059;-53
2022/09/04 09:29:23;;;;;;;4.70;2.58;;;;;;;29.64;37.27;99792.59;5069391;28;20116;-54
2022/09/04 09:32:44;;;;;;;2.85;2.30;;;;;;;30.66;34.42;99787.41;5073635;28;20131;-56
2022/09/04 09:35:41;;;;;;;6.43;2.85;;;;;;;31.32;32.69;99784.75;5089648;28;20052;-59
2022/09/04 09:38:33;;;;;;;4.90;2.88;;;;;;;31.15;32.76;99780.78;5089637;28;20088;-57
2022/09/04 09:41:36;;;;;;;4.85;2.13;;;;;;;31.85;31.03;99776.50;5071648;28;20048;-69
2022/09/04 09:44:42;;;;;;;4.03;2.75;;;;;;;31.98;30.80;99774.81;5064434;28;20052;-70
2022/09/04 09:47:41;;;;;;;5.72;2.40;;;;;;;32.57;29.67;99768.25;5069208;28;20675;-69
2022/09/04 09:50:54;;;;;;;4.53;2.50;;;;;;;32.81;29.38;99773.94;5070018;28;20049;-71
2022/09/04 09:53:49;;;;;;;3.13;2.13;;;;;;;33.00;29.77;99772.13;5069933;28;20063;-72
2022/09/04 09:56:35;;;;;;;4.88;2.45;;;;;;;33.25;28.87;99772.16;5069302;28;20059;-70
2022/09/04 09:59:53;;;;;;;9.77;2.70;;;;;;;33.52;28.12;99775.47;5069382;28;20053;-70
2022/09/04 10:02:50;;;;;;;3.47;2.40;;;;;;;33.64;27.27;99775.59;5069025;28;20142;-69
2022/09/04 10:06:01;;;;;;;3.92;2.60;;;;;;;33.68;27.77;99765.88;5069272;28;20665;-70
2022/09/04 10:08:48;;;;;;;3.83;2.60;;;;;;;34.03;27.38;99776.19;5032382;28;20036;-70
2022/09/04 10:12:04;;;;;;;4.93;2.70;;;;;;;34.29;26.02;99764.13;5071450;28;20510;-71
2022/09/04 10:15:02;;;;;;;3.45;2.47;;;;;;;34.86;25.09;99763.72;5071222;28;20048;-70
2022/09/04 10:18:03;;;;;;;3.42;2.38;;;;;;;34.87;24.40;99771.69;5070453;28;20049;-70
2022/09/04 10:20:41;;;;;;;4.82;2.45;;;;;;;34.78;25.11;99770.34;5086892;28;20055;-71
2022/09/04 10:23:50;;;;;;;9.20;2.65;;;;;;;34.37;25.33;99778.31;5094228;28;20056;-68
2022/09/04 10:26:34;;;;;;;3.70;2.00;;;;;;;32.37;28.47;99779.25;5071803;28;20059;-69
2022/09/04 10:29:35;;;;;;;6.25;2.72;;;;;;;31.39;29.07;99782.91;5089099;28;20048;-68
2022/09/04 10:32:31;;;;;;;5.35;2.50;;;;;;;30.52;30.71;99783.81;5089040;28;20097;-69
2022/09/04 10:35:23;;;;;;;5.03;2.53;;;;;;;31.59;28.84;99777.41;5089273;28;20056;-68
2022/09/04 10:38:05;;;;;;;4.93;2.20;;;;;;;32.52;27.24;99767.25;5088436;28;20060;-69
2022/09/04 10:40:43;;;;;;;8.05;2.88;;;;;;;32.11;28.03;99774.75;5089040;28;20121;-68
2022/09/04 10:43:45;;;;;;;4.25;1.90;;;;;;;31.66;28.34;99771.94;5093044;28;20097;-67
2022/09/04 10:46:21;;;;;;;4.30;1.85;;;;;;;30.49;30.45;99776.91;5085468;28;20089;-68
2022/09/04 10:49:13;;;;;;;3.58;2.40;;;;;;;29.94;30.95;99776.88;5092936;28;20127;-67
2022/09/04 10:52:21;;;;;;;10.32;2.75;;;;;;;30.12;30.50;99778.22;5089469;28;20048;-68
2022/09/04 10:55:21;;;;;;;8.30;2.55;;;;;;;29.92;31.12;99775.41;5092681;28;20048;-69
2022/09/04 10:58:09;;;;;;;3.03;2.17;;;;;;;29.15;32.18;99777.19;5085128;28;20127;-69
2022/09/04 11:00:48;;;;;;;3.83;2.10;;;;;;;28.74;32.39;99777.81;5092543;28;20135;-68
2022/09/04 11:03:43;;;;;;;4.72;2.20;;;;;;;28.33;33.01;99774.84;5092400;28;20484;-69
2022/09/04 11:06:39;;;;;;;2.90;2.20;;;;;;;28.16;32.98;99774.25;5091791;28;20071;-69
2022/09/04 11:09:29;;;;;;;3.53;2.25;;;;;;;27.93;32.95;99769.78;5092094;28;20048;-68
2022/09/04 11:12:16;;;;;;;5.03;2.88;;;;;;;27.82;33.49;99775.69;5089218;28;20131;-68
2022/09/04 11:15:26;;;;;;;4.20;2.15;;;;;;;27.61;33.25;99763.69;5092465;28;20131;-67
2022/09/04 11:18:25;;;;;;;6.22;2.33;;;;;;;27.40;33.86;99766.31;5091216;28;20048;-68
2022/09/04 11:21:26;;;;;;;3.70;2.28;;;;;;;27.34;34.14;99773.28;5061440;28;20048;-68
2022/09/04 11:24:24;;;;;;;3.03;2.10;;;;;;;27.28;34.19;99776.75;5071864;28;20056;-68
2022/09/04 11:27:30;;;;;;;4.60;1.90;;;;;;;27.07;33.77;99768.44;5092483;28;20044;-69
2022/09/04 11:30:05;;;;;;;3.58;2.17;;;;;;;26.97;34.29;99774.13;5092257;28;20055;-68
2022/09/04 11:33:10;;;;;;;4.72;2.80;;;;;;;27.04;34.82;99772.38;5091758;28;20442;-70
2022/09/04 11:36:08;;;;;;;6.85;2.20;;;;;;;27.00;35.04;99773.78;5088969;28;20131;-69
2022/09/04 11:39:02;;;;;;;5.68;2.33;;;;;;;26.94;35.22;99772.63;5092346;28;20044;-69
2022/09/04 11:42:02;;;;;;;4.78;2.30;;;;;;;27.13;35.06;99765.84;5091823;28;20091;-69
2022/09/04 11:44:47;;;;;;;3.75;2.60;;;;;;;27.27;34.78;99775.06;5091842;28;20067;-69
2022/09/04 11:47:56;;;;;;;4.65;2.05;;;;;;;27.34;34.64;99776.00;5091019;28;20054;-69
2022/09/04 11:50:41;;;;;;;7.93;2.58;;;;;;;27.49;34.53;99769.75;5041920;28;20059;-69
2022/09/04 11:53:30;;;;;;;3.53;2.10;;;;;;;27.67;34.21;99780.25;5091066;28;20051;-69
2022/09/04 11:56:13;;;;;;;4.28;2.60;;;;;;;27.58;34.14;99779.47;5090812;28;20070;-69
2022/09/04 11:58:59;;;;;;;4.90;2.38;;;;;;;27.63;33.97;99777.06;5091531;28;20047;-68
2022/09/04 12:01:41;;;;;;;6.10;2.72;;;;;;;27.60;34.05;99772.84;5091511;28;20052;-68
2022/09/04 12:04:30;;;;;;;4.00;2.22;;;;;;;27.69;34.47;99783.59;5091431;28;20074;-68
2022/09/04 12:07:19;;;;;;;3.38;2.35;;;;;;;27.77;34.47;99783.50;5090850;28;20101;-70
2022/09/04 12:10:16;;;;;;;8.38;3.03;;;;;;;27.70;34.17;99783.41;5091168;28;20048;-70
2022/09/04 12:12:58;;;;;;;2.75;1.92;;;;;;;27.56;33.50;99778.81;5090953;28;20422;-69
2022/09/04 12:15:43;;;;;;;5.75;2.47;;;;;;;27.56;33.40;99779.66;5091158;28;20143;-70
2022/09/04 12:18:57;;;;;;;2.55;1.73;;;;;;;27.72;33.63;99780.53;5090811;28;20043;-69
2022/09/04 12:21:59;;;;;;;3.60;2.40;;;;;;;27.74;33.74;99784.72;5067153;28;20071;-69
2022/09/04 12:25:04;;;;;;;3.15;1.92;;;;;;;27.66;33.51;99781.25;5080991;28;20044;-69
2022/09/04 12:28:07;;;;;;;4.55;2.13;;;;;;;27.63;33.55;99780.59;5081253;28;20487;-70
2022/09/04 12:30:52;;;;;;;10.38;2.17;;;;;;;27.65;33.42;99779.59;5070661;28;20680;-69
2022/09/04 12:33:49;;;;;;;4.93;1.83;;;;;;;27.68;33.93;99782.75;5086833;28;20215;-69
2022/09/04 12:36:43;;;;;;;5.28;1.85;;;;;;;27.70;33.91;99775.28;5090065;28;20070;-69
2022/09/04 12:39:53;;;;;;;3.97;1.98;;;;;;;27.60;34.31;99772.84;5090622;28;20509;-69
2022/09/04 12:42:28;;;;;;;8.40;2.55;;;;;;;27.49;34.07;99778.75;5074404;28;20047;-69
2022/09/04 12:45:04;;;;;;;3.05;2.10;;;;;;;27.34;34.40;99777.88;5090599;28;20055;-70
2022/09/04 12:47:45;;;;;;;3.00;2.20;;;;;;;27.28;34.73;99778.63;5089825;28;20059;-70
2022/09/04 12:50:27;;;;;;;7.43;2.80;;;;;;;27.18;34.81;99773.44;5090239;28;20044;-69
2022/09/04 12:53:24;;;;;;;4.15;2.30;;;;;;;27.28;34.55;99771.34;5090144;28;20094;-68
2022/09/04 12:56:01;;;;;;;7.13;2.20;;;;;;;27.39;34.50;99776.31;5088311;28;20495;-69